createdAt,value
2017-09-25T00:00:27.890Z,0
2017-09-25T00:01:36.726Z,0
2017-09-25T00:02:45.564Z,0
2017-09-25T00:03:54.402Z,0
2017-09-25T00:05:03.236Z,0
2017-09-25T00:06:12.078Z,0
2017-09-25T00:07:20.910Z,0
2017-09-25T00:08:29.745Z,0
2017-09-25T00:09:38.581Z,0
2017-09-25T00:10:47.421Z,0
2017-09-25T00:11:56.261Z,0
2017-09-25T00:13:05.093Z,0
2017-09-25T00:14:13.931Z,0
2017-09-25T00:15:22.766Z,0
2017-09-25T00:16:31.603Z,0
2017-09-25T00:17:40.440Z,0
2017-09-25T00:18:49.277Z,0
2017-09-25T00:19:58.110Z,0
2017-09-25T00:21:06.949Z,0
2017-09-25T00:22:15.790Z,0
2017-09-25T00:23:24.625Z,0
2017-09-25T00:24:33.463Z,0
2017-09-25T00:25:42.295Z,0
2017-09-25T00:26:51.125Z,0
2017-09-25T00:27:59.962Z,0
2017-09-25T00:29:08.798Z,0
2017-09-25T00:30:17.634Z,0
2017-09-25T00:31:26.473Z,0
2017-09-25T00:32:35.309Z,0
2017-09-25T00:33:44.142Z,0
2017-09-25T00:34:52.981Z,0
2017-09-25T00:36:01.817Z,0
2017-09-25T00:37:10.655Z,0
2017-09-25T00:38:19.490Z,0
2017-09-25T00:39:28.324Z,0
2017-09-25T00:40:37.484Z,0
2017-09-25T00:41:46.324Z,0
2017-09-25T00:42:55.155Z,0
2017-09-25T00:44:03.992Z,0
2017-09-25T00:45:12.826Z,0
2017-09-25T00:46:21.664Z,0
2017-09-25T00:47:30.502Z,0
2017-09-25T00:48:39.342Z,0
2017-09-25T00:49:48.174Z,0
2017-09-25T00:50:57.014Z,0
2017-09-25T00:52:05.849Z,0
2017-09-25T00:53:14.683Z,0
2017-09-25T00:54:23.523Z,0
2017-09-25T00:55:32.357Z,0
2017-09-25T00:56:41.191Z,0
2017-09-25T00:57:50.032Z,0
2017-09-25T00:58:58.873Z,0
2017-09-25T01:00:08.037Z,0
2017-09-25T01:01:16.871Z,0
2017-09-25T01:02:25.704Z,0
2017-09-25T01:03:34.534Z,0
2017-09-25T01:04:43.371Z,0
2017-09-25T01:05:52.211Z,0
2017-09-25T01:07:01.049Z,0
2017-09-25T01:08:09.884Z,0
2017-09-25T01:09:18.719Z,0
2017-09-25T01:10:27.555Z,0
2017-09-25T01:11:36.392Z,0
2017-09-25T01:12:45.553Z,0
2017-09-25T01:13:54.384Z,0
2017-09-25T01:15:03.224Z,0
2017-09-25T01:16:12.378Z,0
2017-09-25T01:17:21.536Z,0
2017-09-25T01:18:30.375Z,0
2017-09-25T01:19:39.209Z,0
2017-09-25T01:20:48.048Z,0
2017-09-25T01:21:56.882Z,0
2017-09-25T01:23:05.720Z,0
2017-09-25T01:24:14.550Z,0
2017-09-25T01:25:23.388Z,0
2017-09-25T01:26:32.225Z,0
2017-09-25T01:27:41.060Z,0
2017-09-25T01:28:49.900Z,0
2017-09-25T01:29:58.736Z,0
2017-09-25T01:31:07.580Z,0
2017-09-25T01:32:16.415Z,0
2017-09-25T01:33:25.257Z,0
2017-09-25T01:34:34.087Z,0
2017-09-25T01:35:42.926Z,0
2017-09-25T01:36:52.091Z,0
2017-09-25T01:38:00.928Z,0
2017-09-25T01:39:09.765Z,0
2017-09-25T01:40:18.606Z,0
2017-09-25T01:41:27.441Z,0
2017-09-25T01:42:36.272Z,0
2017-09-25T01:43:45.110Z,0
2017-09-25T01:44:53.945Z,0
2017-09-25T01:46:02.784Z,0
2017-09-25T01:47:11.942Z,0
2017-09-25T01:48:20.777Z,0
2017-09-25T01:49:29.617Z,0
2017-09-25T01:50:38.450Z,0
2017-09-25T01:51:47.284Z,0
2017-09-25T01:52:56.120Z,0
2017-09-25T01:54:04.957Z,0
2017-09-25T01:55:13.789Z,0
2017-09-25T01:56:22.628Z,0
2017-09-25T01:57:31.465Z,0
2017-09-25T01:58:40.301Z,0
2017-09-25T01:59:49.137Z,0
2017-09-25T02:00:57.970Z,0
2017-09-25T02:02:06.808Z,0
2017-09-25T02:03:15.638Z,0
2017-09-25T02:04:24.476Z,0
2017-09-25T02:05:33.316Z,0
2017-09-25T02:06:42.153Z,0
2017-09-25T02:07:50.987Z,0
2017-09-25T02:08:59.821Z,0
2017-09-25T02:10:08.655Z,0
2017-09-25T02:11:17.492Z,0
2017-09-25T02:12:26.341Z,0
2017-09-25T02:13:35.182Z,0
2017-09-25T02:14:44.018Z,0
2017-09-25T02:15:52.848Z,0
2017-09-25T02:17:01.677Z,0
2017-09-25T02:18:10.515Z,0
2017-09-25T02:19:19.348Z,0
2017-09-25T02:20:28.180Z,0
2017-09-25T02:21:37.018Z,0
2017-09-25T02:22:45.852Z,0
2017-09-25T02:23:54.687Z,0
2017-09-25T02:25:03.524Z,0
2017-09-25T02:26:12.362Z,0
2017-09-25T02:27:21.221Z,0
2017-09-25T02:28:30.030Z,0
2017-09-25T02:29:38.863Z,0
2017-09-25T02:30:47.699Z,0
2017-09-25T02:31:56.537Z,0
2017-09-25T02:33:05.375Z,0
2017-09-25T02:34:14.210Z,0
2017-09-25T02:35:23.046Z,0
2017-09-25T02:36:31.881Z,0
2017-09-25T02:37:40.738Z,0
2017-09-25T02:38:49.552Z,0
2017-09-25T02:39:58.385Z,0
2017-09-25T02:41:07.222Z,0
2017-09-25T02:42:16.058Z,0
2017-09-25T02:43:24.900Z,0
2017-09-25T02:44:34.380Z,0
2017-09-25T02:45:43.216Z,0
2017-09-25T02:46:52.055Z,0
2017-09-25T02:48:00.889Z,0
2017-09-25T02:49:09.730Z,0
2017-09-25T02:50:18.563Z,0
2017-09-25T02:51:27.400Z,0
2017-09-25T02:52:36.234Z,0
2017-09-25T02:53:45.067Z,0
2017-09-25T02:54:53.906Z,0
2017-09-25T02:56:02.744Z,0
2017-09-25T02:57:11.578Z,0
2017-09-25T02:58:20.415Z,0
2017-09-25T02:59:29.252Z,0
2017-09-25T03:00:38.087Z,0
2017-09-25T03:01:46.923Z,0
2017-09-25T03:02:55.762Z,0
2017-09-25T03:04:04.591Z,0
2017-09-25T03:05:13.427Z,0
2017-09-25T03:06:22.332Z,0
2017-09-25T03:07:31.186Z,0
2017-09-25T03:08:40.042Z,0
2017-09-25T03:09:48.899Z,0
2017-09-25T03:10:57.753Z,0
2017-09-25T03:12:06.931Z,0
2017-09-25T03:13:15.788Z,0
2017-09-25T03:14:24.640Z,0
2017-09-25T03:15:33.495Z,0
2017-09-25T03:16:42.350Z,0
2017-09-25T03:17:51.204Z,0
2017-09-25T03:19:00.059Z,0
2017-09-25T03:20:08.916Z,0
2017-09-25T03:21:17.768Z,0
2017-09-25T03:22:26.625Z,0
2017-09-25T03:23:35.479Z,0
2017-09-25T03:24:44.332Z,0
2017-09-25T03:25:53.192Z,0
2017-09-25T03:27:02.042Z,0
2017-09-25T03:28:10.896Z,0
2017-09-25T03:29:19.753Z,0
2017-09-25T03:30:28.614Z,0
2017-09-25T03:31:37.467Z,0
2017-09-25T03:32:46.319Z,0
2017-09-25T03:33:55.172Z,0
2017-09-25T03:35:04.028Z,0
2017-09-25T03:36:12.884Z,0
2017-09-25T03:37:21.743Z,0
2017-09-25T03:38:30.593Z,0
2017-09-25T03:39:39.446Z,0
2017-09-25T03:40:48.301Z,0
2017-09-25T03:41:57.158Z,0
2017-09-25T03:43:06.012Z,0
2017-09-25T03:44:14.867Z,0
2017-09-25T03:45:23.718Z,0
2017-09-25T03:46:32.573Z,0
2017-09-25T03:47:41.435Z,0
2017-09-25T03:48:50.294Z,0
2017-09-25T03:49:59.471Z,0
2017-09-25T03:51:08.326Z,0
2017-09-25T03:52:17.179Z,0
2017-09-25T03:53:26.032Z,0
2017-09-25T03:54:34.886Z,0
2017-09-25T03:55:43.743Z,0
2017-09-25T03:56:52.594Z,0
2017-09-25T03:58:01.483Z,0
2017-09-25T03:59:10.303Z,0
2017-09-25T04:00:19.158Z,0
2017-09-25T04:01:28.015Z,0
2017-09-25T04:02:36.871Z,0
2017-09-25T04:03:45.724Z,0
2017-09-25T04:04:54.581Z,0
2017-09-25T04:06:03.434Z,0
2017-09-25T04:07:12.288Z,0
2017-09-25T04:08:21.143Z,0
2017-09-25T04:09:29.999Z,0
2017-09-25T04:10:38.854Z,0
2017-09-25T04:11:47.709Z,0
2017-09-25T04:12:56.564Z,0
2017-09-25T04:14:05.415Z,0
2017-09-25T04:15:14.276Z,0
2017-09-25T04:16:23.130Z,0
2017-09-25T04:17:31.986Z,0
2017-09-25T04:18:40.839Z,0
2017-09-25T04:19:49.696Z,0
2017-09-25T04:20:58.552Z,0
2017-09-25T04:22:07.410Z,0
2017-09-25T04:23:16.267Z,0
2017-09-25T04:24:25.122Z,0
2017-09-25T04:25:33.974Z,0
2017-09-25T04:26:42.830Z,0
2017-09-25T04:27:51.683Z,0
2017-09-25T04:29:00.537Z,0
2017-09-25T04:30:09.718Z,0
2017-09-25T04:31:18.570Z,0
2017-09-25T04:32:27.424Z,0
2017-09-25T04:33:36.280Z,0
2017-09-25T04:34:45.134Z,0
2017-09-25T04:35:53.988Z,0
2017-09-25T04:37:02.842Z,0
2017-09-25T04:38:11.696Z,0
2017-09-25T04:39:20.552Z,0
2017-09-25T04:40:29.408Z,0
2017-09-25T04:41:38.263Z,0
2017-09-25T04:42:47.120Z,0
2017-09-25T04:43:55.978Z,0
2017-09-25T04:45:04.832Z,0
2017-09-25T04:46:13.686Z,0
2017-09-25T04:47:22.539Z,0
2017-09-25T04:48:31.717Z,0
2017-09-25T04:49:40.573Z,0
2017-09-25T04:50:49.430Z,0
2017-09-25T04:51:58.281Z,0
2017-09-25T04:53:07.465Z,0
2017-09-25T04:54:16.320Z,0
2017-09-25T04:55:25.180Z,0
2017-09-25T04:56:34.036Z,0
2017-09-25T04:57:42.898Z,0
2017-09-25T04:58:51.749Z,0
2017-09-25T05:00:00.604Z,0
2017-09-25T05:01:09.462Z,0
2017-09-25T05:02:18.317Z,0
2017-09-25T05:03:27.169Z,0
2017-09-25T05:04:36.025Z,0
2017-09-25T05:05:45.204Z,0
2017-09-25T05:06:54.062Z,0
2017-09-25T05:08:02.914Z,0
2017-09-25T05:09:11.770Z,0
2017-09-25T05:10:20.623Z,0
2017-09-25T05:11:29.478Z,0
2017-09-25T05:12:38.331Z,0
2017-09-25T05:13:47.185Z,0
2017-09-25T05:14:56.040Z,0
2017-09-25T05:16:04.895Z,0
2017-09-25T05:17:13.748Z,0
2017-09-25T05:18:22.605Z,0
2017-09-25T05:19:31.785Z,0
2017-09-25T05:20:40.637Z,0
2017-09-25T05:21:49.491Z,0
2017-09-25T05:22:58.374Z,0
2017-09-25T05:24:07.196Z,0
2017-09-25T05:25:16.057Z,0
2017-09-25T05:26:24.909Z,5
2017-09-25T05:27:33.795Z,5
2017-09-25T05:28:42.618Z,0
2017-09-25T05:29:51.476Z,0
2017-09-25T05:31:00.326Z,0
2017-09-25T05:32:09.179Z,0
2017-09-25T05:33:18.040Z,0
2017-09-25T05:34:26.892Z,5
2017-09-25T05:35:35.747Z,0
2017-09-25T05:36:44.602Z,0
2017-09-25T05:37:53.457Z,0
2017-09-25T05:39:02.309Z,0
2017-09-25T05:40:11.163Z,0
2017-09-25T05:41:20.015Z,0
2017-09-25T05:42:28.872Z,0
2017-09-25T05:43:37.726Z,5
2017-09-25T05:44:46.580Z,5
2017-09-25T05:45:55.434Z,5
2017-09-25T05:47:04.289Z,5
2017-09-25T05:48:13.143Z,5
2017-09-25T05:49:21.997Z,5
2017-09-25T05:50:30.851Z,5
2017-09-25T05:51:39.706Z,0
2017-09-25T05:52:48.559Z,0
2017-09-25T05:53:57.416Z,0
2017-09-25T05:55:06.268Z,5
2017-09-25T05:56:15.125Z,5
2017-09-25T05:57:23.979Z,5
2017-09-25T05:58:33.158Z,5
2017-09-25T05:59:42.011Z,5
2017-09-25T06:00:50.868Z,5
2017-09-25T06:02:00.056Z,5
2017-09-25T06:03:08.913Z,5
2017-09-25T06:04:17.770Z,5
2017-09-25T06:05:26.625Z,5
2017-09-25T06:06:35.477Z,5
2017-09-25T06:07:44.333Z,5
2017-09-25T06:08:53.189Z,5
2017-09-25T06:10:02.046Z,5
2017-09-25T06:11:10.903Z,5
2017-09-25T06:12:19.756Z,5
2017-09-25T06:13:28.611Z,5
2017-09-25T06:14:37.467Z,5
2017-09-25T06:15:46.325Z,5
2017-09-25T06:16:55.177Z,5
2017-09-25T06:18:04.035Z,5
2017-09-25T06:19:13.215Z,5
2017-09-25T06:20:22.071Z,5
2017-09-25T06:21:30.927Z,5
2017-09-25T06:22:39.784Z,5
2017-09-25T06:23:48.637Z,5
2017-09-25T06:24:57.494Z,10
2017-09-25T06:26:06.344Z,10
2017-09-25T06:27:15.197Z,10
2017-09-25T06:28:24.055Z,10
2017-09-25T06:29:32.908Z,15
2017-09-25T06:30:41.763Z,10
2017-09-25T06:31:50.615Z,20
2017-09-25T06:32:59.470Z,15
2017-09-25T06:34:08.326Z,15
2017-09-25T06:35:17.505Z,15
2017-09-25T06:36:26.681Z,15
2017-09-25T06:37:35.538Z,15
2017-09-25T06:38:44.390Z,15
2017-09-25T06:39:53.571Z,15
2017-09-25T06:41:02.425Z,15
2017-09-25T06:42:11.278Z,20
2017-09-25T06:43:20.132Z,20
2017-09-25T06:44:28.988Z,15
2017-09-25T06:45:37.843Z,20
2017-09-25T06:46:46.696Z,15
2017-09-25T06:47:55.553Z,20
2017-09-25T06:49:04.406Z,15
2017-09-25T06:50:13.257Z,10
2017-09-25T06:51:22.112Z,10
2017-09-25T06:52:30.967Z,10
2017-09-25T06:53:39.819Z,15
2017-09-25T06:54:48.676Z,10
2017-09-25T06:55:57.532Z,10
2017-09-25T06:57:06.384Z,10
2017-09-25T06:58:15.239Z,10
2017-09-25T06:59:24.094Z,15
2017-09-25T07:00:32.949Z,15
2017-09-25T07:01:41.807Z,10
2017-09-25T07:02:50.660Z,10
2017-09-25T07:03:59.545Z,20
2017-09-25T07:05:08.370Z,20
2017-09-25T07:06:17.230Z,20
2017-09-25T07:07:26.406Z,25
2017-09-25T07:08:35.262Z,20
2017-09-25T07:09:44.116Z,20
2017-09-25T07:10:52.970Z,20
2017-09-25T07:12:01.829Z,20
2017-09-25T07:13:10.684Z,20
2017-09-25T07:14:19.534Z,25
2017-09-25T07:15:28.716Z,20
2017-09-25T07:16:37.569Z,20
2017-09-25T07:17:46.424Z,20
2017-09-25T07:18:55.280Z,20
2017-09-25T07:20:04.137Z,20
2017-09-25T07:21:12.989Z,30
2017-09-25T07:22:21.843Z,25
2017-09-25T07:23:30.699Z,30
2017-09-25T07:24:39.553Z,25
2017-09-25T07:25:48.410Z,20
2017-09-25T07:26:57.264Z,15
2017-09-25T07:28:06.446Z,10
2017-09-25T07:29:15.621Z,10
2017-09-25T07:30:24.473Z,10
2017-09-25T07:31:33.325Z,5
2017-09-25T07:32:42.180Z,5
2017-09-25T07:33:51.038Z,5
2017-09-25T07:35:00.219Z,5
2017-09-25T07:36:09.399Z,5
2017-09-25T07:37:18.287Z,10
2017-09-25T07:38:27.106Z,10
2017-09-25T07:39:36.291Z,10
2017-09-25T07:40:45.147Z,15
2017-09-25T07:41:54.000Z,10
2017-09-25T07:43:03.180Z,10
2017-09-25T07:44:12.039Z,10
2017-09-25T07:45:20.889Z,10
2017-09-25T07:46:29.745Z,10
2017-09-25T07:47:38.601Z,10
2017-09-25T07:48:47.454Z,10
2017-09-25T07:49:56.313Z,10
2017-09-25T07:51:05.170Z,10
2017-09-25T07:52:14.025Z,10
2017-09-25T07:53:23.203Z,15
2017-09-25T07:54:32.060Z,15
2017-09-25T07:55:40.914Z,15
2017-09-25T07:56:49.768Z,15
2017-09-25T07:57:58.622Z,15
2017-09-25T07:59:07.479Z,20
2017-09-25T08:00:16.330Z,20
2017-09-25T08:01:25.185Z,25
2017-09-25T08:02:34.040Z,25
2017-09-25T08:03:42.898Z,20
2017-09-25T08:04:51.755Z,15
2017-09-25T08:06:00.610Z,20
2017-09-25T08:07:09.466Z,30
2017-09-25T08:08:18.321Z,30
2017-09-25T08:09:27.174Z,25
2017-09-25T08:10:36.352Z,20
2017-09-25T08:11:45.215Z,20
2017-09-25T08:12:54.067Z,20
2017-09-25T08:14:03.246Z,25
2017-09-25T08:15:12.106Z,25
2017-09-25T08:16:20.961Z,30
2017-09-25T08:17:29.814Z,35
2017-09-25T08:18:38.668Z,30
2017-09-25T08:19:47.522Z,30
2017-09-25T08:20:56.376Z,30
2017-09-25T08:22:05.234Z,30
2017-09-25T08:23:14.090Z,30
2017-09-25T08:24:22.943Z,30
2017-09-25T08:25:31.800Z,25
2017-09-25T08:26:40.651Z,30
2017-09-25T08:27:49.506Z,25
2017-09-25T08:28:58.360Z,25
2017-09-25T08:30:07.540Z,25
2017-09-25T08:31:16.395Z,25
2017-09-25T08:32:25.575Z,25
2017-09-25T08:33:34.430Z,20
2017-09-25T08:34:43.612Z,20
2017-09-25T08:35:52.472Z,20
2017-09-25T08:37:01.646Z,20
2017-09-25T08:38:10.505Z,20
2017-09-25T08:39:19.362Z,20
2017-09-25T08:40:28.214Z,20
2017-09-25T08:41:37.072Z,25
2017-09-25T08:42:45.928Z,25
2017-09-25T08:43:54.781Z,25
2017-09-25T08:45:03.638Z,25
2017-09-25T08:46:12.498Z,25
2017-09-25T08:47:21.672Z,30
2017-09-25T08:48:30.524Z,30
2017-09-25T08:49:39.706Z,30
2017-09-25T08:50:48.559Z,30
2017-09-25T08:51:57.414Z,30
2017-09-25T08:53:06.266Z,30
2017-09-25T08:54:15.119Z,30
2017-09-25T08:55:23.977Z,35
2017-09-25T08:56:32.831Z,35
2017-09-25T08:57:41.685Z,40
2017-09-25T08:58:50.539Z,40
2017-09-25T08:59:59.393Z,35
2017-09-25T09:01:08.251Z,35
2017-09-25T09:02:17.108Z,30
2017-09-25T09:03:25.964Z,30
2017-09-25T09:04:34.815Z,30
2017-09-25T09:05:43.677Z,25
2017-09-25T09:06:52.871Z,25
2017-09-25T09:08:02.048Z,25
2017-09-25T09:09:10.901Z,30
2017-09-25T09:10:19.761Z,30
2017-09-25T09:11:28.614Z,30
2017-09-25T09:12:37.466Z,35
2017-09-25T09:13:46.323Z,35
2017-09-25T09:14:55.179Z,35
2017-09-25T09:16:04.039Z,35
2017-09-25T09:17:12.894Z,30
2017-09-25T09:18:21.750Z,40
2017-09-25T09:19:30.931Z,35
2017-09-25T09:20:40.117Z,30
2017-09-25T09:21:48.970Z,30
2017-09-25T09:22:57.826Z,25
2017-09-25T09:24:06.683Z,25
2017-09-25T09:25:15.537Z,30
2017-09-25T09:26:24.390Z,35
2017-09-25T09:27:33.250Z,35
2017-09-25T09:28:42.104Z,35
2017-09-25T09:29:50.960Z,40
2017-09-25T09:30:59.817Z,45
2017-09-25T09:32:08.670Z,45
2017-09-25T09:33:17.850Z,45
2017-09-25T09:34:26.704Z,50
2017-09-25T09:35:35.558Z,50
2017-09-25T09:36:44.418Z,45
2017-09-25T09:37:53.275Z,50
2017-09-25T09:39:02.128Z,40
2017-09-25T09:40:10.981Z,40
2017-09-25T09:41:19.836Z,35
2017-09-25T09:42:28.691Z,40
2017-09-25T09:43:37.545Z,35
2017-09-25T09:44:46.729Z,30
2017-09-25T09:45:55.584Z,25
2017-09-25T09:47:04.438Z,20
2017-09-25T09:48:13.293Z,20
2017-09-25T09:49:22.148Z,15
2017-09-25T09:50:31.003Z,15
2017-09-25T09:51:39.858Z,10
2017-09-25T09:52:48.714Z,10
2017-09-25T09:53:57.567Z,10
2017-09-25T09:55:06.427Z,10
2017-09-25T09:56:15.286Z,10
2017-09-25T09:57:24.139Z,10
2017-09-25T09:58:32.995Z,10
2017-09-25T09:59:41.844Z,10
2017-09-25T10:00:50.697Z,10
2017-09-25T10:01:59.553Z,10
2017-09-25T10:03:08.409Z,10
2017-09-25T10:04:17.588Z,10
2017-09-25T10:05:26.446Z,5
2017-09-25T10:06:35.623Z,5
2017-09-25T10:07:44.477Z,5
2017-09-25T10:08:53.333Z,5
2017-09-25T10:10:02.190Z,5
2017-09-25T10:11:11.044Z,5
2017-09-25T10:12:19.899Z,5
2017-09-25T10:13:28.756Z,10
2017-09-25T10:14:37.611Z,10
2017-09-25T10:15:46.469Z,10
2017-09-25T10:16:55.327Z,10
2017-09-25T10:18:04.181Z,10
2017-09-25T10:19:13.037Z,10
2017-09-25T10:20:21.889Z,10
2017-09-25T10:21:30.743Z,10
2017-09-25T10:22:39.600Z,20
2017-09-25T10:23:48.455Z,20
2017-09-25T10:24:57.638Z,15
2017-09-25T10:26:06.496Z,15
2017-09-25T10:27:15.350Z,15
2017-09-25T10:28:24.208Z,20
2017-09-25T10:29:33.062Z,20
2017-09-25T10:30:41.917Z,20
2017-09-25T10:31:50.775Z,15
2017-09-25T10:32:59.964Z,15
2017-09-25T10:34:08.821Z,10
2017-09-25T10:35:17.675Z,10
2017-09-25T10:36:26.530Z,10
2017-09-25T10:37:35.386Z,10
2017-09-25T10:38:44.565Z,10
2017-09-25T10:39:53.422Z,10
2017-09-25T10:41:02.275Z,10
2017-09-25T10:42:11.131Z,10
2017-09-25T10:43:19.985Z,10
2017-09-25T10:44:28.838Z,15
2017-09-25T10:45:37.695Z,15
2017-09-25T10:46:46.554Z,15
2017-09-25T10:47:55.408Z,20
2017-09-25T10:49:04.263Z,20
2017-09-25T10:50:13.116Z,20
2017-09-25T10:51:22.301Z,25
2017-09-25T10:52:31.157Z,30
2017-09-25T10:53:40.343Z,30
2017-09-25T10:54:49.198Z,30
2017-09-25T10:55:58.054Z,30
2017-09-25T10:57:06.908Z,30
2017-09-25T10:58:15.762Z,30
2017-09-25T10:59:24.618Z,25
2017-09-25T11:00:33.457Z,15
2017-09-25T11:01:42.295Z,15
2017-09-25T11:02:51.128Z,15
2017-09-25T11:03:59.967Z,15
2017-09-25T11:05:08.798Z,10
2017-09-25T11:06:17.634Z,10
2017-09-25T11:07:26.476Z,5
2017-09-25T11:08:35.310Z,5
2017-09-25T11:09:44.147Z,10
2017-09-25T11:10:52.985Z,15
2017-09-25T11:12:01.815Z,30
2017-09-25T11:13:10.653Z,35
2017-09-25T11:14:19.485Z,40
2017-09-25T11:15:28.324Z,40
2017-09-25T11:16:37.156Z,45
2017-09-25T11:17:45.995Z,50
2017-09-25T11:18:54.825Z,50
2017-09-25T11:20:03.665Z,45
2017-09-25T11:21:12.504Z,45
2017-09-25T11:22:21.341Z,45
2017-09-25T11:23:30.169Z,45
2017-09-25T11:24:39.004Z,40
2017-09-25T11:25:47.840Z,40
2017-09-25T11:26:56.679Z,40
2017-09-25T11:28:05.514Z,35
2017-09-25T11:29:14.349Z,30
2017-09-25T11:30:23.182Z,20
2017-09-25T11:31:32.017Z,25
2017-09-25T11:32:41.180Z,25
2017-09-25T11:33:50.014Z,35
2017-09-25T11:34:58.855Z,45
2017-09-25T11:36:07.685Z,50
2017-09-25T11:37:16.838Z,55
2017-09-25T11:38:25.680Z,55
2017-09-25T11:39:34.518Z,55
2017-09-25T11:40:43.351Z,55
2017-09-25T11:41:52.190Z,55
2017-09-25T11:43:01.023Z,55
2017-09-25T11:44:09.852Z,55
2017-09-25T11:45:18.689Z,50
2017-09-25T11:46:27.528Z,55
2017-09-25T11:47:36.364Z,50
2017-09-25T11:48:45.201Z,50
2017-09-25T11:49:54.360Z,50
2017-09-25T11:51:03.198Z,50
2017-09-25T11:52:12.043Z,50
2017-09-25T11:53:20.876Z,50
2017-09-25T11:54:29.703Z,55
2017-09-25T11:55:38.542Z,50
2017-09-25T11:56:47.380Z,50
2017-09-25T11:57:56.214Z,40
2017-09-25T11:59:05.051Z,45
2017-09-25T12:00:13.887Z,45
2017-09-25T12:01:22.717Z,40
2017-09-25T12:02:31.554Z,30
2017-09-25T12:03:40.392Z,20
2017-09-25T12:04:49.234Z,25
2017-09-25T12:05:58.391Z,20
2017-09-25T12:07:07.224Z,20
2017-09-25T12:08:16.064Z,20
2017-09-25T12:09:24.900Z,15
2017-09-25T12:10:33.734Z,15
2017-09-25T12:11:42.566Z,20
2017-09-25T12:12:51.403Z,20
2017-09-25T12:14:00.236Z,25
2017-09-25T12:15:09.070Z,30
2017-09-25T12:16:17.909Z,25
2017-09-25T12:17:26.748Z,25
2017-09-25T12:18:35.581Z,35
2017-09-25T12:19:44.413Z,30
2017-09-25T12:20:53.249Z,20
2017-09-25T12:22:02.083Z,20
2017-09-25T12:23:10.918Z,15
2017-09-25T12:24:19.752Z,10
2017-09-25T12:25:28.586Z,10
2017-09-25T12:26:37.417Z,5
2017-09-25T12:27:46.254Z,5
2017-09-25T12:28:55.093Z,10
2017-09-25T12:30:03.928Z,15
2017-09-25T12:31:13.087Z,10
2017-09-25T12:32:21.917Z,15
2017-09-25T12:33:30.751Z,15
2017-09-25T12:34:39.590Z,20
2017-09-25T12:35:48.426Z,25
2017-09-25T12:36:57.261Z,30
2017-09-25T12:38:06.101Z,25
2017-09-25T12:39:14.930Z,30
2017-09-25T12:40:23.773Z,35
2017-09-25T12:41:32.610Z,35
2017-09-25T12:42:41.443Z,35
2017-09-25T12:43:50.277Z,30
2017-09-25T12:44:59.112Z,30
2017-09-25T12:46:07.948Z,25
2017-09-25T12:47:16.787Z,25
2017-09-25T12:48:25.627Z,25
2017-09-25T12:49:34.459Z,30
2017-09-25T12:50:43.289Z,30
2017-09-25T12:51:52.129Z,30
2017-09-25T12:53:00.969Z,30
2017-09-25T12:54:09.802Z,30
2017-09-25T12:55:18.638Z,30
2017-09-25T12:56:27.471Z,35
2017-09-25T12:57:36.311Z,35
2017-09-25T12:58:45.152Z,40
2017-09-25T12:59:53.989Z,40
2017-09-25T13:01:02.821Z,35
2017-09-25T13:02:11.985Z,35
2017-09-25T13:03:20.812Z,35
2017-09-25T13:04:29.650Z,35
2017-09-25T13:05:38.488Z,40
2017-09-25T13:06:47.323Z,40
2017-09-25T13:07:56.160Z,40
2017-09-25T13:09:05.318Z,45
2017-09-25T13:10:14.155Z,45
2017-09-25T13:11:22.991Z,45
2017-09-25T13:12:31.825Z,45
2017-09-25T13:13:40.662Z,45
2017-09-25T13:14:49.499Z,35
2017-09-25T13:15:58.342Z,30
2017-09-25T13:17:07.500Z,35
2017-09-25T13:18:16.336Z,35
2017-09-25T13:19:25.497Z,35
2017-09-25T13:20:34.333Z,30
2017-09-25T13:21:43.490Z,25
2017-09-25T13:22:52.332Z,25
2017-09-25T13:24:01.165Z,30
2017-09-25T13:25:10.002Z,30
2017-09-25T13:26:18.843Z,35
2017-09-25T13:27:27.683Z,35
2017-09-25T13:28:36.515Z,35
2017-09-25T13:29:45.351Z,30
2017-09-25T13:30:54.195Z,35
2017-09-25T13:32:03.029Z,35
2017-09-25T13:33:11.868Z,35
2017-09-25T13:34:20.700Z,35
2017-09-25T13:35:29.538Z,30
2017-09-25T13:36:38.374Z,30
2017-09-25T13:37:47.213Z,25
2017-09-25T13:38:56.046Z,25
2017-09-25T13:40:04.881Z,25
2017-09-25T13:41:13.723Z,20
2017-09-25T13:42:22.557Z,20
2017-09-25T13:43:31.396Z,15
2017-09-25T13:44:40.228Z,20
2017-09-25T13:45:49.065Z,20
2017-09-25T13:46:57.900Z,20
2017-09-25T13:48:06.738Z,20
2017-09-25T13:49:15.576Z,15
2017-09-25T13:50:24.409Z,15
2017-09-25T13:51:33.243Z,20
2017-09-25T13:52:42.078Z,20
2017-09-25T13:53:50.915Z,20
2017-09-25T13:54:59.768Z,20
2017-09-25T13:56:09.247Z,20
2017-09-25T13:57:18.089Z,20
2017-09-25T13:58:26.927Z,20
2017-09-25T14:03:24.917Z,20
2017-09-25T14:04:33.758Z,20
2017-09-25T14:05:42.590Z,20
2017-09-25T14:06:51.423Z,20
2017-09-25T14:08:00.262Z,20
2017-09-25T14:09:09.100Z,20
2017-09-25T14:10:17.934Z,20
2017-09-25T14:11:26.770Z,20
2017-09-25T14:12:35.604Z,20
2017-09-25T14:13:44.440Z,20
2017-09-25T14:14:53.275Z,20
2017-09-25T14:16:02.113Z,20
2017-09-25T14:17:10.950Z,20
2017-09-25T14:18:19.788Z,20
2017-09-25T14:19:28.624Z,20
2017-09-25T14:20:37.460Z,20
2017-09-25T14:21:46.295Z,20
2017-09-25T14:22:55.131Z,20
2017-09-25T14:24:03.972Z,25
2017-09-25T14:25:12.806Z,25
2017-09-25T14:26:21.637Z,25
2017-09-25T14:27:30.473Z,25
2017-09-25T14:28:39.307Z,25
2017-09-25T14:29:48.144Z,25
2017-09-25T14:30:56.984Z,25
2017-09-25T14:32:05.819Z,25
2017-09-25T14:33:14.655Z,25
2017-09-25T14:34:23.488Z,25
2017-09-25T14:35:32.326Z,25
2017-09-25T14:36:41.159Z,25
2017-09-25T14:37:49.997Z,25
2017-09-25T14:38:58.835Z,25
2017-09-25T14:40:07.674Z,25
2017-09-25T14:41:16.853Z,25
2017-09-25T14:42:25.686Z,25
2017-09-25T14:43:34.524Z,20
2017-09-25T14:44:43.359Z,20
2017-09-25T14:45:52.201Z,15
2017-09-25T14:47:01.032Z,20
2017-09-25T14:48:09.877Z,20
2017-09-25T14:49:18.713Z,20
2017-09-25T14:50:27.547Z,20
2017-09-25T14:51:36.386Z,20
2017-09-25T14:52:45.225Z,20
2017-09-25T14:53:54.059Z,15
2017-09-25T14:55:02.899Z,15
2017-09-25T14:56:11.734Z,15
2017-09-25T14:57:20.564Z,15
2017-09-25T14:58:29.398Z,10
2017-09-25T14:59:38.239Z,10
2017-09-25T15:00:47.080Z,10
2017-09-25T15:01:55.922Z,15
2017-09-25T15:03:04.754Z,15
2017-09-25T15:04:13.586Z,15
2017-09-25T15:05:22.425Z,15
2017-09-25T15:06:31.265Z,10
2017-09-25T15:07:40.099Z,15
2017-09-25T15:08:49.264Z,15
2017-09-25T15:09:58.098Z,15
2017-09-25T15:11:06.986Z,15
2017-09-25T15:12:15.826Z,15
2017-09-25T15:13:24.669Z,15
2017-09-25T15:14:33.496Z,15
2017-09-25T15:15:42.335Z,15
2017-09-25T15:16:51.168Z,10
2017-09-25T15:18:00.003Z,10
2017-09-25T15:19:08.840Z,10
2017-09-25T15:20:17.680Z,10
2017-09-25T15:21:26.514Z,5
2017-09-25T15:22:35.350Z,5
2017-09-25T15:23:44.190Z,5
2017-09-25T15:24:53.026Z,5
2017-09-25T15:26:01.864Z,5
2017-09-25T15:27:10.704Z,5
2017-09-25T15:28:19.542Z,5
2017-09-25T15:29:28.379Z,5
2017-09-25T15:30:37.216Z,5
2017-09-25T15:31:46.051Z,5
2017-09-25T15:32:54.893Z,5
2017-09-25T15:34:03.733Z,5
2017-09-25T15:35:12.904Z,5
2017-09-25T15:36:21.739Z,5
2017-09-25T15:37:30.571Z,5
2017-09-25T15:38:39.412Z,5
2017-09-25T15:39:48.250Z,5
2017-09-25T15:40:57.089Z,5
2017-09-25T15:42:05.920Z,5
2017-09-25T15:43:14.760Z,5
2017-09-25T15:44:23.596Z,5
2017-09-25T15:45:32.434Z,0
2017-09-25T15:46:41.266Z,0
2017-09-25T15:47:50.101Z,0
2017-09-25T15:48:59.262Z,0
2017-09-25T15:50:08.099Z,0
2017-09-25T15:51:16.935Z,0
2017-09-25T15:52:26.100Z,5
2017-09-25T15:53:34.936Z,5
2017-09-25T15:54:43.777Z,5
2017-09-25T15:55:52.609Z,5
2017-09-25T15:57:01.450Z,5
2017-09-25T15:58:10.284Z,5
2017-09-25T15:59:19.119Z,5
2017-09-25T16:00:27.953Z,5
2017-09-25T16:01:36.795Z,5
2017-09-25T16:02:45.633Z,5
2017-09-25T16:03:54.463Z,5
2017-09-25T16:05:03.300Z,5
2017-09-25T16:06:12.140Z,5
2017-09-25T16:07:20.978Z,5
2017-09-25T16:08:29.814Z,5
2017-09-25T16:09:38.650Z,5
2017-09-25T16:10:47.480Z,5
2017-09-25T16:11:56.317Z,5
2017-09-25T16:13:05.157Z,5
2017-09-25T16:14:13.995Z,5
2017-09-25T16:15:23.155Z,5
2017-09-25T16:16:31.987Z,5
2017-09-25T16:17:40.822Z,5
2017-09-25T16:18:49.665Z,5
2017-09-25T16:19:58.494Z,0
2017-09-25T16:21:07.333Z,0
2017-09-25T16:22:16.165Z,0
2017-09-25T16:23:25.008Z,0
2017-09-25T16:24:33.850Z,0
2017-09-25T16:25:43.012Z,0
2017-09-25T16:26:51.843Z,0
2017-09-25T16:28:00.680Z,0
2017-09-25T16:29:09.520Z,0
2017-09-25T16:30:18.357Z,0
2017-09-25T16:31:27.194Z,0
2017-09-25T16:32:36.026Z,0
2017-09-25T16:33:44.857Z,0
2017-09-25T16:34:53.699Z,0
2017-09-25T16:36:02.535Z,0
2017-09-25T16:37:11.373Z,0
2017-09-25T16:38:20.209Z,0
2017-09-25T16:39:29.041Z,0
2017-09-25T16:40:37.873Z,0
2017-09-25T16:41:46.714Z,0
2017-09-25T16:42:55.877Z,0